Gregory, Texas
Current Conditions -  °F | °C
As of 9:15 PM on Thursday 27 Nov 2014 (Local Time) from KTFP Reporting Station
Clear Clear  
Wind Chill: 60°   Ceiling: Unl
Heat Index: 60°   Visibility: 10mi
Dew Point: 55°   Wind: 8mph
Humidity: 81%   Direction: 80°E
Pressure: 30.4"   Gusts: NA
Location:  27.92°N, 97.29°W
Report Text: KTFP 280315Z AUTO 08007KT 10SM CLR 16/13 A3040 RMK AO2 T01570125
Loading
Personal Weather Stations






























Interactive Weather Map New forecast layout! Learn more

10-Day Weather Forecast

Advertisements
Track Severe Weather on mobile